Time;durP1;ratioP1;P1;durP2;ratioP2;P2;SDS_P1;SDS_P2;PMS_P1;PMS_P2;Temp;Humidity;BMP_temperature;BMP_pressure;BME280_temperature;BME280_humidity;BME280_pressure;Samples;Min_cycle;Max_cycle;Signal;HPM_P1;HPM_P2
2022/10/13 04:00:22;;;;;;;25.65;16.35;;;;;;;11.49;80.93;101331.28;5606047;31;78131;-57
2022/10/13 04:03:24;;;;;;;23.00;16.30;;;;;;;11.49;80.93;101331.28;5582592;31;33364;-58
2022/10/13 04:06:28;;;;;;;20.00;15.30;;;;;;;11.03;81.91;101331.87;5583787;32;33281;-58
2022/10/13 04:09:30;;;;;;;21.35;15.90;;;;;;;10.88;82.65;101334.44;5584098;31;33839;-58
2022/10/13 04:12:32;;;;;;;24.77;16.08;;;;;;;11.00;82.37;101332.37;5583874;31;33771;-58
2022/10/13 04:15:36;;;;;;;24.48;15.93;;;;;;;10.97;82.19;101322.16;5593278;31;33581;-58
2022/10/13 04:18:38;;;;;;;18.50;14.90;;;;;;;10.90;82.33;101332.31;5602308;31;34318;-58
2022/10/13 04:21:46;;;;;;;26.60;16.58;;;;;;;11.00;81.75;101326.22;5602564;31;33886;-58
2022/10/13 04:24:48;;;;;;;21.80;15.63;;;;;;;10.96;81.58;101328.63;5602151;31;33523;-57
2022/10/13 04:27:50;;;;;;;21.55;16.37;;;;;;;10.95;81.94;101331.53;5603070;31;33552;-58
2022/10/13 04:30:52;;;;;;;22.80;15.98;;;;;;;10.94;81.64;101330.72;5590093;31;34291;-58
2022/10/13 04:33:55;;;;;;;20.83;15.65;;;;;;;10.85;81.96;101337.66;5583586;31;33694;-58
2022/10/13 04:36:57;;;;;;;18.90;15.27;;;;;;;10.80;82.17;101326.91;5581526;31;34285;-58
2022/10/13 04:39:59;;;;;;;23.67;16.33;;;;;;;10.95;81.51;101334.22;5578724;32;33724;-57
2022/10/13 04:43:02;;;;;;;21.05;16.27;;;;;;;10.80;81.55;101329.59;5583295;31;33675;-58
2022/10/13 04:46:25;;;;;;;23.52;15.43;;;;;;;10.88;81.11;101330.97;5582037;31;33240;-58
2022/10/13 04:49:28;;;;;;;26.20;16.98;;;;;;;10.87;81.16;101324.78;5578513;31;34145;-57
2022/10/13 04:52:30;;;;;;;24.55;17.35;;;;;;;10.84;81.26;101327.19;5581054;31;33825;-58
2022/10/13 04:55:35;;;;;;;23.92;17.85;;;;;;;10.76;81.88;101331.13;5591637;31;33446;-58
2022/10/13 04:58:38;;;;;;;23.17;16.92;;;;;;;10.91;81.27;101333.94;5579844;31;33189;-58
2022/10/13 05:01:40;;;;;;;103.00;20.55;;;;;;;10.91;81.44;101333.94;5590692;31;34303;-58
2022/10/13 05:04:47;;;;;;;27.85;16.20;;;;;;;10.98;81.15;101337.19;5591107;31;33601;-57
2022/10/13 05:07:49;;;;;;;22.55;16.95;;;;;;;11.00;81.29;101337.75;5592184;31;33629;-58
2022/10/13 05:11:00;;;;;;;100.40;21.40;;;;;;;10.97;81.24;101332.09;5580893;31;33333;-58
2022/10/13 05:14:02;;;;;;;23.02;17.60;;;;;;;11.06;80.78;101327.88;5589825;31;33621;-58
2022/10/13 05:17:04;;;;;;;21.98;16.75;;;;;;;10.92;81.11;101332.06;5565140;31;33583;-58
2022/10/13 05:20:07;;;;;;;25.83;17.52;;;;;;;10.90;81.19;101328.84;5567878;32;33713;-57
2022/10/13 05:23:10;;;;;;;30.75;18.85;;;;;;;10.99;80.99;101333.47;5576049;31;34397;-58
2022/10/13 05:26:15;;;;;;;32.40;18.50;;;;;;;10.88;81.39;101336.31;5568739;31;34151;-58
2022/10/13 05:29:18;;;;;;;30.42;17.87;;;;;;;10.95;81.69;101328.84;5568241;31;32416;-58
2022/10/13 05:32:20;;;;;;;29.75;18.60;;;;;;;11.00;81.22;101334.25;5574795;31;34241;-58
2022/10/13 05:35:24;;;;;;;44.17;20.80;;;;;;;11.03;80.76;101331.06;5584761;31;33704;-57
2022/10/13 05:38:26;;;;;;;36.75;18.87;;;;;;;10.95;81.48;101332.34;5568072;31;33233;-57
2022/10/13 05:41:29;;;;;;;33.20;18.33;;;;;;;10.97;81.44;101334.78;5573645;31;33395;-57
2022/10/13 05:44:32;;;;;;;50.75;17.92;;;;;;;11.05;81.36;101334.28;5572784;31;33732;-58
2022/10/13 05:47:34;;;;;;;35.45;18.92;;;;;;;11.07;81.50;101334.03;5574469;31;34311;-58
2022/10/13 05:50:36;;;;;;;206.73;27.80;;;;;;;11.07;81.92;101336.72;5567039;32;34205;-58
2022/10/13 05:53:43;;;;;;;39.97;18.00;;;;;;;11.16;82.15;101338.66;5571673;31;32003;-57
2022/10/13 05:56:58;;;;;;;27.13;18.33;;;;;;;11.25;81.43;101339.75;5577578;31;33545;-58
2022/10/13 06:00:09;;;;;;;65.95;20.98;;;;;;;11.22;81.85;101342.94;5565929;31;33653;-57
2022/10/13 06:03:16;;;;;;;38.53;19.98;;;;;;;11.29;82.45;101343.56;5580574;31;35103;-58
2022/10/13 06:06:22;;;;;;;32.17;19.00;;;;;;;11.31;83.40;101348.66;5584630;31;33663;-58
2022/10/13 06:09:36;;;;;;;57.78;19.70;;;;;;;11.44;82.53;101350.84;5568039;31;33804;-58
2022/10/13 06:12:39;;;;;;;28.85;19.20;;;;;;;11.47;83.10;101354.91;5560333;32;34364;-57
2022/10/13 06:15:41;;;;;;;32.42;20.08;;;;;;;11.54;82.45;101360.84;5572443;31;34393;-58
2022/10/13 06:18:43;;;;;;;31.52;19.33;;;;;;;11.56;81.52;101360.59;5565460;32;33599;-57
2022/10/13 06:21:47;;;;;;;32.38;19.35;;;;;;;11.61;81.88;101356.03;5575545;31;33687;-58
2022/10/13 06:24:49;;;;;;;31.95;19.98;;;;;;;11.63;81.70;101361.16;5578176;31;33570;-58
2022/10/13 06:27:51;;;;;;;33.22;20.73;;;;;;;11.63;82.32;101366.53;5573712;31;33680;-57
2022/10/13 06:30:55;;;;;;;29.37;19.83;;;;;;;11.80;81.55;101367.09;5569701;31;33670;-58
2022/10/13 06:33:58;;;;;;;26.77;18.98;;;;;;;11.93;81.40;101363.94;5574353;31;33785;-57
2022/10/13 06:37:00;;;;;;;27.50;19.55;;;;;;;12.14;80.63;101370.16;5567399;31;33679;-57
2022/10/13 06:40:03;;;;;;;26.77;20.88;;;;;;;12.12;80.56;101368.81;5570714;31;33831;-57
2022/10/13 06:43:05;;;;;;;34.63;21.33;;;;;;;12.12;81.00;101366.97;5574763;31;34451;-58
2022/10/13 06:46:14;;;;;;;36.22;19.23;;;;;;;12.18;81.37;101367.75;5571518;31;34222;-58
2022/10/13 06:49:16;;;;;;;30.52;19.75;;;;;;;12.25;82.37;101365.63;5574878;31;33045;-57
2022/10/13 06:52:18;;;;;;;35.45;21.15;;;;;;;12.32;82.81;101363.50;5569015;31;33466;-57
2022/10/13 06:55:21;;;;;;;35.58;20.67;;;;;;;12.41;83.39;101364.56;5570187;31;33790;-58
2022/10/13 06:58:24;;;;;;;30.15;20.05;;;;;;;12.46;83.55;101367.25;5572690;31;33703;-58
2022/10/13 07:01:26;;;;;;;27.60;20.35;;;;;;;12.58;83.82;101361.63;5583590;31;33629;-58
2022/10/13 07:04:28;;;;;;;32.30;21.83;;;;;;;12.65;83.75;101359.47;5569935;31;33875;-58
2022/10/13 07:07:32;;;;;;;30.05;21.10;;;;;;;12.78;83.08;101358.13;5566656;32;33744;-58
2022/10/13 07:10:37;;;;;;;32.78;21.17;;;;;;;12.88;83.04;101354.56;5566217;31;34293;-57
2022/10/13 07:13:41;;;;;;;31.17;21.08;;;;;;;13.05;82.36;101355.09;5574670;31;34674;-58
2022/10/13 07:16:49;;;;;;;31.27;22.00;;;;;;;13.19;81.80;101354.53;5568448;32;34299;-58
2022/10/13 07:19:51;;;;;;;31.77;21.33;;;;;;;13.23;81.15;101350.22;5570666;31;34378;-58
2022/10/13 07:22:59;;;;;;;29.10;20.52;;;;;;;13.23;81.52;101355.59;5566507;31;33613;-59
2022/10/13 07:26:06;;;;;;;28.38;21.77;;;;;;;13.40;79.33;101356.91;5582377;31;34308;-58
2022/10/13 07:29:08;;;;;;;28.12;17.37;;;;;;;13.48;78.44;101352.84;5575066;31;33583;-58
2022/10/13 07:32:10;;;;;;;28.33;16.25;;;;;;;13.57;72.23;101353.06;5566068;32;33695;-58
2022/10/13 07:35:12;;;;;;;25.77;15.70;;;;;;;13.58;73.03;101349.31;5571092;31;33879;-58
2022/10/13 07:38:15;;;;;;;25.85;15.57;;;;;;;13.65;71.72;101351.69;5578655;31;33586;-58
2022/10/13 07:41:17;;;;;;;24.95;16.65;;;;;;;13.76;71.90;101358.63;5568062;32;33808;-58
2022/10/13 07:44:20;;;;;;;28.77;15.95;;;;;;;13.74;71.09;101356.25;5567114;31;33680;-58
2022/10/13 07:47:22;;;;;;;23.87;15.65;;;;;;;13.77;69.32;101349.47;5568809;31;34222;-58
2022/10/13 07:50:24;;;;;;;24.15;14.82;;;;;;;13.93;71.74;101350.19;5566752;31;33948;-59
2022/10/13 07:53:26;;;;;;;20.37;13.93;;;;;;;14.08;69.33;101348.22;5570047;31;34294;-58
2022/10/13 07:56:29;;;;;;;21.85;14.13;;;;;;;14.24;66.14;101351.63;5562708;32;33576;-58
2022/10/13 07:59:32;;;;;;;23.40;14.40;;;;;;;14.26;65.56;101357.50;5570487;31;34210;-58
2022/10/13 08:02:35;;;;;;;26.20;14.48;;;;;;;14.29;68.15;101354.25;5581812;31;34589;-58
2022/10/13 08:05:38;;;;;;;35.03;15.57;;;;;;;14.43;66.58;101359.00;5569564;31;34357;-58
2022/10/13 08:08:40;;;;;;;24.80;14.90;;;;;;;14.62;63.93;101351.06;5569719;31;34187;-58
2022/10/13 08:11:45;;;;;;;31.50;15.43;;;;;;;14.47;64.34;101347.41;5568947;31;33885;-58
2022/10/13 08:14:51;;;;;;;27.60;15.50;;;;;;;14.43;65.71;101345.53;5577587;31;33851;-58
2022/10/13 08:17:53;;;;;;;31.07;15.83;;;;;;;14.62;63.33;101340.28;5567697;32;33590;-58
2022/10/13 08:21:01;;;;;;;29.87;15.88;;;;;;;14.64;64.46;101343.50;5567492;31;34343;-58
2022/10/13 08:24:24;;;;;;;26.20;16.90;;;;;;;14.77;62.56;101343.66;5571925;31;33706;-58
2022/10/13 08:27:27;;;;;;;26.02;16.00;;;;;;;14.73;63.28;101328.28;5573476;31;34242;-58
2022/10/13 08:30:50;;;;;;;24.17;14.90;;;;;;;14.74;64.55;101335.31;5571974;31;33614;-58
2022/10/13 08:33:52;;;;;;;25.02;14.35;;;;;;;14.75;64.15;101331.53;5562085;32;33718;-58
2022/10/13 08:36:56;;;;;;;24.90;14.38;;;;;;;14.92;61.22;101334.59;5576859;31;32089;-58
2022/10/13 08:39:58;;;;;;;23.52;14.63;;;;;;;14.97;59.97;101331.84;5573910;31;33589;-58
2022/10/13 08:43:05;;;;;;;18.75;12.52;;;;;;;14.95;60.64;101327.81;5561372;31;33696;-57
2022/10/13 08:46:11;;;;;;;27.65;13.82;;;;;;;14.97;59.96;101322.94;5568052;31;33677;-58
2022/10/13 08:49:16;;;;;;;27.65;13.95;;;;;;;14.99;59.58;101326.13;5577266;31;34264;-57
2022/10/13 08:52:23;;;;;;;32.08;14.98;;;;;;;15.00;59.26;101322.38;5573492;31;33644;-58
2022/10/13 08:55:47;;;;;;;23.00;14.73;;;;;;;15.13;60.83;101326.25;5567704;32;34114;-58
2022/10/13 08:58:53;;;;;;;28.25;13.48;;;;;;;15.13;59.26;101316.28;5561202;31;34071;-58
2022/10/13 09:01:56;;;;;;;26.48;12.02;;;;;;;15.13;61.82;101310.06;5566249;31;34362;-58
2022/10/13 09:05:01;;;;;;;24.30;13.70;;;;;;;15.27;58.34;101314.47;5585278;31;33323;-58
2022/10/13 09:08:14;;;;;;;23.83;13.25;;;;;;;15.35;59.17;101310.31;5569291;32;34346;-58
2022/10/13 09:11:17;;;;;;;22.25;11.85;;;;;;;15.37;59.03;101310.84;5575328;31;32704;-58
2022/10/13 09:14:31;;;;;;;20.00;10.13;;;;;;;15.47;58.75;101309.94;5568337;32;33818;-58
2022/10/13 09:17:34;;;;;;;45.78;10.50;;;;;;;15.45;57.18;101307.50;5570882;31;33709;-58
2022/10/13 09:20:38;;;;;;;18.17;10.32;;;;;;;15.48;56.28;101312.31;5578704;31;34384;-58
2022/10/13 09:23:40;;;;;;;15.80;9.73;;;;;;;15.58;56.89;101310.59;5569032;31;33804;-58
2022/10/13 09:26:44;;;;;;;16.65;9.18;;;;;;;15.67;56.47;101306.97;5564815;31;32921;-58
2022/10/13 09:29:46;;;;;;;21.20;9.93;;;;;;;15.71;56.59;101312.59;5559230;31;32341;-58
2022/10/13 09:32:49;;;;;;;27.13;10.00;;;;;;;15.70;56.60;101297.47;5569975;31;33622;-58
2022/10/13 09:36:01;;;;;;;20.00;9.35;;;;;;;15.83;58.11;101301.37;5570893;31;33690;-58
2022/10/13 09:39:07;;;;;;;27.05;10.52;;;;;;;15.90;56.18;101296.38;5573493;31;33211;-58
2022/10/13 09:42:26;;;;;;;16.77;10.25;;;;;;;15.85;57.64;101294.53;5580241;31;34488;-58
2022/10/13 09:45:31;;;;;;;16.45;10.07;;;;;;;15.95;56.07;101294.37;5587265;31;34217;-58
2022/10/13 09:48:35;;;;;;;16.02;10.20;;;;;;;15.85;56.46;101288.34;5569191;32;34407;-58
2022/10/13 09:51:40;;;;;;;15.70;10.05;;;;;;;15.93;57.11;101287.69;5566695;32;33868;-58
2022/10/13 09:54:49;;;;;;;15.23;9.90;;;;;;;15.95;57.79;101286.28;5566095;31;33835;-58
2022/10/13 09:57:54;;;;;;;20.95;10.57;;;;;;;15.91;58.81;101281.75;5578765;31;33625;-58
2022/10/13 10:00:58;;;;;;;16.05;9.52;;;;;;;15.96;57.26;101276.28;5566642;31;33246;-58
2022/10/13 10:04:05;;;;;;;17.23;9.02;;;;;;;16.04;57.51;101270.19;5567449;32;33676;-58
2022/10/13 10:07:17;;;;;;;16.50;9.88;;;;;;;16.09;58.31;101274.72;5563433;31;33838;-58
2022/10/13 10:10:32;;;;;;;17.23;9.68;;;;;;;16.20;57.23;101268.06;5563453;31;33708;-58
2022/10/13 10:13:36;;;;;;;17.65;9.40;;;;;;;16.29;56.42;101268.97;5564910;32;33801;-58
2022/10/13 10:16:44;;;;;;;14.00;8.95;;;;;;;16.24;57.32;101271.75;5568855;31;34385;-58
2022/10/13 10:19:58;;;;;;;16.50;9.65;;;;;;;16.25;58.32;101259.03;5572162;31;34178;-58
2022/10/13 10:23:24;;;;;;;14.80;8.80;;;;;;;16.45;55.79;101259.47;5567208;31;34567;-58
2022/10/13 10:26:50;;;;;;;13.20;9.05;;;;;;;16.35;56.10;101258.84;5584433;31;33916;-58
2022/10/13 10:30:04;;;;;;;17.00;9.43;;;;;;;16.43;57.82;101250.87;5549370;32;33623;-58
2022/10/13 10:33:39;;;;;;;27.08;9.93;;;;;;;16.62;56.87;101249.97;5559998;32;34809;-58
2022/10/13 10:36:52;;;;;;;18.53;9.40;;;;;;;16.63;57.35;101252.41;5553941;32;33656;-58
2022/10/13 10:40:26;;;;;;;15.43;8.55;;;;;;;16.56;56.75;101246.56;5559099;32;33719;-58
2022/10/13 10:43:37;;;;;;;14.35;8.98;;;;;;;16.59;58.24;101237.88;5569590;31;34419;-58
2022/10/13 10:46:45;;;;;;;23.73;10.57;;;;;;;16.63;57.82;101238.88;5565369;31;34433;-58
2022/10/13 10:49:52;;;;;;;17.92;9.77;;;;;;;16.69;57.99;101234.16;5559084;31;34197;-58
2022/10/13 10:53:03;;;;;;;16.92;10.10;;;;;;;16.71;58.69;101229.22;5562552;31;33608;-58
2022/10/13 10:56:23;;;;;;;16.17;12.75;;;;;;;16.70;59.34;101221.41;5587084;31;33681;-58
2022/10/13 10:59:39;;;;;;;18.92;12.37;;;;;;;16.71;59.91;101214.91;5573188;31;34505;-58
2022/10/13 11:03:07;;;;;;;17.23;11.63;;;;;;;16.84;58.71;101217.63;5572306;31;34448;-57
2022/10/13 11:06:15;;;;;;;19.23;11.38;;;;;;;16.80;58.59;101202.28;5563954;32;34251;-58
2022/10/13 11:09:40;;;;;;;18.15;10.80;;;;;;;16.92;57.79;101199.87;5563773;31;33752;-58
2022/10/13 11:12:45;;;;;;;21.92;12.73;;;;;;;16.87;59.14;101197.28;5568141;31;34300;-58
2022/10/13 11:15:48;;;;;;;16.25;10.85;;;;;;;16.89;58.71;101189.66;5567921;31;33639;-58
2022/10/13 11:19:11;;;;;;;16.98;9.95;;;;;;;16.85;58.82;101188.63;5564859;31;33358;-58
2022/10/13 11:22:19;;;;;;;22.35;11.60;;;;;;;16.91;59.20;101182.81;5564992;31;33617;-58
2022/10/13 11:25:40;;;;;;;16.75;11.25;;;;;;;17.02;59.45;101182.59;5564590;32;33717;-58
2022/10/13 11:28:45;;;;;;;26.73;10.77;;;;;;;17.04;58.62;101183.91;5557442;31;34396;-58
2022/10/13 11:31:52;;;;;;;23.10;12.07;;;;;;;17.05;58.39;101174.69;5583915;31;33713;-58
2022/10/13 11:35:04;;;;;;;21.50;11.23;;;;;;;17.13;57.16;101171.25;5566211;31;34336;-58
2022/10/13 11:38:22;;;;;;;15.90;11.15;;;;;;;17.16;57.22;101167.12;5571677;31;33795;-58
2022/10/13 11:41:32;;;;;;;15.48;10.75;;;;;;;17.21;57.95;101168.91;5562112;31;33734;-58
2022/10/13 11:44:58;;;;;;;16.87;9.73;;;;;;;17.16;58.04;101164.41;5575329;31;33713;-59
2022/10/13 11:48:09;;;;;;;20.12;11.52;;;;;;;17.17;58.08;101148.97;5571118;31;33807;-59
2022/10/13 11:51:48;;;;;;;14.87;10.85;;;;;;;17.24;57.22;101155.56;5562435;31;33431;-59
2022/10/13 11:55:00;;;;;;;17.08;11.45;;;;;;;17.22;58.58;101152.37;5564981;32;34370;-58
2022/10/13 11:58:07;;;;;;;17.17;11.00;;;;;;;17.30;58.27;101145.41;5557812;31;33187;-59
2022/10/13 12:01:13;;;;;;;21.73;11.70;;;;;;;17.27;58.79;101141.41;5564627;31;33121;-59
2022/10/13 12:04:21;;;;;;;19.27;11.65;;;;;;;17.25;57.12;101130.06;5568209;32;34393;-58
2022/10/13 12:07:27;;;;;;;18.50;11.05;;;;;;;17.27;57.21;101127.84;5566559;31;33680;-58
2022/10/13 12:10:34;;;;;;;;;;;;;;;17.33;57.61;101128.53;5572161;31;33522;-58
2022/10/13 12:13:36;;;;;;;23.00;10.68;;;;;;;17.36;57.72;101117.88;5576729;31;33989;-58
2022/10/13 12:16:51;;;;;;;15.68;10.60;;;;;;;17.39;57.42;101130.03;5567170;32;32192;-59
2022/10/13 12:19:55;;;;;;;17.55;11.30;;;;;;;17.44;57.35;101118.25;5567648;32;34293;-58
2022/10/13 12:22:59;;;;;;;18.48;11.27;;;;;;;17.43;57.70;101113.94;5567357;32;34536;-58
2022/10/13 12:26:02;;;;;;;20.23;10.77;;;;;;;17.52;56.65;101114.81;5572963;31;34566;-59
2022/10/13 12:29:11;;;;;;;19.15;11.63;;;;;;;17.50;57.28;101111.59;5568597;31;34439;-58
2022/10/13 12:32:34;;;;;;;16.50;10.55;;;;;;;17.45;58.30;101103.56;5569523;32;33923;-58
2022/10/13 12:35:55;;;;;;;13.62;9.77;;;;;;;17.49;57.48;101097.25;5573260;31;34377;-58
2022/10/13 12:39:14;;;;;;;16.77;10.15;;;;;;;17.45;57.67;101095.44;5569621;31;33690;-59
2022/10/13 12:42:31;;;;;;;20.27;10.68;;;;;;;17.50;58.44;101095.34;5567342;31;32513;-58
2022/10/13 12:45:35;;;;;;;;;;;;;;;17.49;58.28;101088.31;5579262;31;34499;-58
2022/10/13 12:48:37;;;;;;;14.52;9.55;;;;;;;17.50;58.03;101093.41;5566731;32;34000;-59
2022/10/13 12:52:23;;;;;;;16.08;10.82;;;;;;;17.61;58.69;101096.66;5571155;31;33630;-58
2022/10/13 12:55:28;;;;;;;13.95;10.10;;;;;;;17.60;58.90;101087.72;5581380;31;32609;-59
2022/10/13 12:58:34;;;;;;;15.10;9.55;;;;;;;17.57;58.31;101085.66;5588853;31;33723;-58
2022/10/13 13:01:39;;;;;;;16.02;10.30;;;;;;;17.57;58.83;101084.84;5590023;31;33613;-59
2022/10/13 13:04:43;;;;;;;14.00;9.73;;;;;;;17.63;58.60;101083.63;5572418;31;33667;-59
2022/10/13 13:07:52;;;;;;;20.02;11.35;;;;;;;17.65;58.46;101081.41;5569649;32;34083;-59
2022/10/13 13:10:57;;;;;;;13.10;9.70;;;;;;;17.61;58.69;101077.69;5570214;31;33685;-58
2022/10/13 13:14:38;;;;;;;16.87;10.57;;;;;;;17.63;58.83;101078.19;5570529;31;33739;-59
2022/10/13 13:17:40;;;;;;;15.52;10.20;;;;;;;17.68;58.67;101078.06;5580073;31;33804;-59
2022/10/13 13:21:05;;;;;;;17.17;10.27;;;;;;;17.80;57.92;101075.59;5569171;32;33550;-58
2022/10/13 13:24:07;;;;;;;23.08;10.55;;;;;;;17.83;57.56;101069.53;5569788;32;33675;-59
2022/10/13 13:27:37;;;;;;;26.17;10.40;;;;;;;17.80;57.71;101063.94;5578969;31;34476;-58
2022/10/13 13:30:40;;;;;;;14.15;9.48;;;;;;;17.76;57.82;101061.06;5574899;31;32897;-59
2022/10/13 13:33:47;;;;;;;39.22;10.60;;;;;;;17.71;58.30;101065.78;5589649;31;33716;-59
2022/10/13 13:36:56;;;;;;;33.88;10.80;;;;;;;17.74;59.59;101065.16;5562447;31;32264;-58
2022/10/13 13:40:17;;;;;;;43.83;11.55;;;;;;;17.75;58.54;101056.72;5577423;31;33924;-59
2022/10/13 13:43:19;;;;;;;20.77;11.70;;;;;;;17.74;58.50;101054.31;5550556;32;34281;-58
2022/10/13 13:46:26;;;;;;;30.58;11.35;;;;;;;17.74;57.26;101057.81;5549973;32;34354;-58
2022/10/13 13:49:31;;;;;;;16.12;9.85;;;;;;;17.73;58.10;101050.81;5550016;32;33699;-58
2022/10/13 13:52:34;;;;;;;21.77;11.38;;;;;;;17.70;58.44;101051.44;5550247;32;33562;-58
2022/10/13 13:55:36;;;;;;;34.22;10.52;;;;;;;17.73;57.83;101050.00;5549610;32;33771;-59
2022/10/13 13:58:39;;;;;;;38.08;11.80;;;;;;;17.73;60.36;101050.81;5549372;32;34219;-59
2022/10/13 14:01:42;;;;;;;22.40;10.48;;;;;;;17.73;59.19;101047.31;5550028;32;33647;-59
2022/10/13 14:04:44;;;;;;;31.90;11.02;;;;;;;17.74;59.48;101048.88;5549684;32;33800;-59
2022/10/13 14:07:46;;;;;;;23.08;10.95;;;;;;;17.74;59.40;101049.69;5549598;32;34063;-58
2022/10/13 14:10:49;;;;;;;29.48;11.75;;;;;;;17.72;60.00;101051.13;5550102;32;34294;-59
2022/10/13 14:13:52;;;;;;;23.45;11.43;;;;;;;17.74;59.55;101048.88;5550064;32;33808;-58
2022/10/13 14:17:02;;;;;;;20.65;12.02;;;;;;;17.75;59.22;101042.38;5550060;32;33424;-59
2022/10/13 14:20:05;;;;;;;26.12;12.35;;;;;;;17.70;59.11;101042.50;5549622;32;34369;-58
2022/10/13 14:23:11;;;;;;;20.75;11.52;;;;;;;17.70;60.03;101039.78;5549906;32;34402;-59
2022/10/13 14:26:14;;;;;;;39.58;13.27;;;;;;;17.65;59.18;101038.03;5549905;32;33696;-59
2022/10/13 14:29:16;;;;;;;28.98;12.40;;;;;;;17.64;60.68;101044.53;5549448;32;33619;-59
2022/10/13 14:32:18;;;;;;;21.83;11.68;;;;;;;17.62;59.10;101033.22;5549941;32;33685;-58
2022/10/13 14:35:21;;;;;;;28.55;11.40;;;;;;;17.61;59.33;101040.56;5549801;32;33792;-58
2022/10/13 14:38:23;;;;;;;23.50;11.38;;;;;;;17.60;59.88;101030.00;5549690;32;34365;-58
2022/10/13 14:41:25;;;;;;;43.75;13.38;;;;;;;17.59;59.62;101033.84;5549827;32;33846;-59
2022/10/13 14:44:27;;;;;;;18.42;11.25;;;;;;;17.54;60.34;101039.38;5548780;32;33761;-58
2022/10/13 14:47:30;;;;;;;16.52;11.55;;;;;;;17.52;60.11;101033.50;5549797;32;33636;-59
2022/10/13 14:50:32;;;;;;;16.87;11.30;;;;;;;17.49;60.54;101031.41;5549782;32;33681;-58
2022/10/13 14:53:37;;;;;;;18.67;11.12;;;;;;;17.46;60.20;101024.69;5549972;32;33825;-58
2022/10/13 14:56:39;;;;;;;18.83;11.35;;;;;;;17.52;60.20;101028.06;5549733;32;33647;-59
2022/10/13 14:59:42;;;;;;;21.40;11.93;;;;;;;17.47;61.12;101028.97;5549549;32;33713;-58
2022/10/13 15:02:44;;;;;;;18.70;11.18;;;;;;;17.46;61.02;101019.25;5549179;32;33764;-58
2022/10/13 15:05:46;;;;;;;18.50;11.32;;;;;;;17.46;61.05;101026.59;5549403;32;34347;-59
2022/10/13 15:08:52;;;;;;;35.60;12.00;;;;;;;17.40;62.00;101023.19;5549645;32;33858;-59
2022/10/13 15:11:56;;;;;;;82.60;14.40;;;;;;;17.35;62.44;101024.16;5549713;32;34410;-58
2022/10/13 15:14:58;;;;;;;20.30;11.35;;;;;;;17.34;63.21;101016.31;5549654;32;34239;-58
2022/10/13 15:18:00;;;;;;;19.65;11.40;;;;;;;17.33;62.75;101023.66;5549752;32;33778;-59
2022/10/13 15:21:02;;;;;;;31.37;13.23;;;;;;;17.30;62.85;101018.84;5549671;32;33869;-59
2022/10/13 15:24:05;;;;;;;30.25;12.25;;;;;;;17.32;63.45;101016.63;5549309;32;33590;-58
2022/10/13 15:27:07;;;;;;;21.58;11.55;;;;;;;17.29;63.44;101022.66;5549571;32;33786;-59
2022/10/13 15:30:10;;;;;;;24.05;11.23;;;;;;;17.24;63.40;101017.38;5549446;32;33685;-59
2022/10/13 15:33:12;;;;;;;19.90;12.00;;;;;;;17.17;64.00;101018.91;5549528;32;34397;-59
